createdAt,value
2024-05-09T00:00:45.823Z,101511.88
2024-05-09T00:03:13.420Z,101513.56
2024-05-09T00:05:41.556Z,101504.84
2024-05-09T00:08:10.282Z,101508.28
2024-05-09T00:10:39.473Z,101511.72
2024-05-09T00:13:08.527Z,101502.25
2024-05-09T00:15:36.662Z,101510.88
2024-05-09T00:18:05.855Z,101505.66
2024-05-09T00:20:38.677Z,101514.94
2024-05-09T00:23:12.830Z,101510.50
2024-05-09T00:25:44.122Z,101510.41
2024-05-09T00:28:12.683Z,101509.38
2024-05-09T00:30:40.572Z,101504.09
2024-05-09T00:33:10.090Z,101510.91
2024-05-09T00:35:38.629Z,101514.13
2024-05-09T00:38:06.422Z,101520.03
2024-05-09T00:40:41.851Z,101512.31
2024-05-09T00:43:14.731Z,101501.94
2024-05-09T00:45:43.620Z,101514.84
2024-05-09T00:48:15.223Z,101511.50
2024-05-09T00:50:45.811Z,101505.34
2024-05-09T00:53:15.920Z,101510.38
2024-05-09T00:55:44.245Z,101503.19
2024-05-09T00:58:15.866Z,101502.25
2024-05-09T01:00:43.663Z,101503.00
2024-05-09T01:03:13.067Z,101504.78
2024-05-09T01:05:42.669Z,101501.44
2024-05-09T01:08:11.558Z,101500.56
2024-05-09T01:10:40.795Z,101501.28
2024-05-09T01:13:10.316Z,101506.31
2024-05-09T01:15:37.512Z,101507.06
2024-05-09T01:18:10.415Z,101506.16
2024-05-09T01:20:42.354Z,101506.78
2024-05-09T01:23:12.903Z,101498.91
2024-05-09T01:25:41.296Z,101503.97
2024-05-09T01:28:08.616Z,101510.09
2024-05-09T01:30:37.526Z,101502.22
2024-05-09T01:33:07.960Z,101503.72
2024-05-09T01:35:37.378Z,101507.06
2024-05-09T01:38:05.405Z,101505.44
2024-05-09T01:40:38.116Z,101500.41
2024-05-09T01:43:11.137Z,101502.00
2024-05-09T01:45:40.246Z,101515.66
2024-05-09T01:48:08.736Z,101512.28
2024-05-09T01:50:40.108Z,101510.53
2024-05-09T01:53:15.170Z,101509.47
2024-05-09T01:55:43.080Z,101511.81
2024-05-09T01:58:10.794Z,101513.31
2024-05-09T02:00:42.459Z,101507.94
2024-05-09T02:03:16.477Z,101514.72
2024-05-09T02:05:47.123Z,101507.75
2024-05-09T02:08:19.654Z,101512.88
2024-05-09T02:10:48.500Z,101512.00
2024-05-09T02:13:16.802Z,101514.81
2024-05-09T02:15:44.491Z,101511.66
2024-05-09T02:18:12.201Z,101503.19
2024-05-09T02:20:42.184Z,101499.78
2024-05-09T02:23:10.285Z,101505.53
2024-05-09T02:25:37.656Z,101512.38
2024-05-09T02:28:05.236Z,101509.50
2024-05-09T02:33:04.031Z,101521.19
2024-05-09T02:35:31.493Z,101514.38
2024-05-09T02:37:58.824Z,101507.34
2024-05-09T02:40:35.046Z,101508.91
2024-05-09T02:43:05.151Z,101507.06
2024-05-09T02:45:32.867Z,101507.06
2024-05-09T02:48:01.380Z,101502.13
2024-05-09T02:50:36.595Z,101502.00
2024-05-09T02:53:10.050Z,101502.28
2024-05-09T02:55:38.405Z,101506.44
2024-05-09T02:58:07.481Z,101514.13
2024-05-09T03:00:39.336Z,101505.41
2024-05-09T03:03:11.358Z,101508.81
2024-05-09T03:05:41.053Z,101513.78
2024-05-09T03:08:08.828Z,101513.69
2024-05-09T03:10:38.330Z,101505.06
2024-05-09T03:13:12.783Z,101514.28
2024-05-09T03:15:41.355Z,101508.22
2024-05-09T03:18:09.051Z,101509.94
2024-05-09T03:20:37.296Z,101504.09
2024-05-09T03:23:06.607Z,101504.97
2024-05-09T03:25:34.484Z,101505.19
2024-05-09T03:28:01.923Z,101500.13
2024-05-09T03:30:36.272Z,101499.25
2024-05-09T03:33:13.544Z,101491.50
2024-05-09T03:35:42.295Z,101496.47
2024-05-09T03:38:09.707Z,101490.31
2024-05-09T03:40:44.389Z,101491.03
2024-05-09T03:43:11.700Z,101488.56
2024-05-09T03:45:38.971Z,101484.34
2024-05-09T03:48:06.889Z,101487.84
2024-05-09T03:50:36.101Z,101487.34
2024-05-09T03:53:04.516Z,101489.44
2024-05-09T03:55:32.361Z,101495.72
2024-05-09T03:57:59.902Z,101493.38
2024-05-09T04:00:35.434Z,101487.53
2024-05-09T04:03:08.910Z,101481.59
2024-05-09T04:05:41.044Z,101485.31
2024-05-09T04:08:10.087Z,101492.53
2024-05-09T04:10:37.823Z,101481.44
2024-05-09T04:13:05.601Z,101481.63
2024-05-09T04:15:33.012Z,101494.75
2024-05-09T04:18:01.277Z,101486.31
2024-05-09T04:20:37.128Z,101490.88
2024-05-09T04:23:08.917Z,101492.81
2024-05-09T04:25:37.208Z,101500.81
2024-05-09T04:28:05.304Z,101494.25
2024-05-09T04:30:38.161Z,101491.97
2024-05-09T04:33:10.883Z,101492.09
2024-05-09T04:35:40.021Z,101495.69
2024-05-09T04:38:08.250Z,101502.63
2024-05-09T04:40:37.247Z,101502.75
2024-05-09T04:43:06.613Z,101501.19
2024-05-09T04:45:34.301Z,101505.69
2024-05-09T04:48:02.271Z,101513.66
2024-05-09T04:50:36.440Z,101511.25
2024-05-09T04:53:10.581Z,101510.53
2024-05-09T04:55:40.027Z,101497.72
2024-05-09T04:58:09.444Z,101490.00
2024-05-09T05:00:39.078Z,101496.97
2024-05-09T05:03:14.475Z,101505.56
2024-05-09T05:05:44.856Z,101495.25
2024-05-09T05:08:18.613Z,101504.06
2024-05-09T05:10:48.113Z,101497.13
2024-05-09T05:13:18.177Z,101507.63
2024-05-09T05:15:50.292Z,101515.38
2024-05-09T05:18:18.536Z,101517.16
2024-05-09T05:20:46.336Z,101511.31
2024-05-09T05:23:15.987Z,101511.41
2024-05-09T05:25:43.851Z,101504.63
2024-05-09T05:28:11.435Z,101508.13
2024-05-09T05:30:39.491Z,101516.81
2024-05-09T05:33:07.612Z,101512.53
2024-05-09T05:35:35.189Z,101512.47
2024-05-09T05:38:03.432Z,101509.78
2024-05-09T05:40:37.231Z,101500.47
2024-05-09T05:43:15.861Z,101503.25
2024-05-09T05:45:43.879Z,101509.28
2024-05-09T05:48:11.550Z,101503.34
2024-05-09T05:50:39.219Z,101500.03
2024-05-09T05:53:08.419Z,101503.53
2024-05-09T05:55:40.540Z,101499.47
2024-05-09T05:58:15.058Z,101504.91
2024-05-09T06:00:43.060Z,101499.03
2024-05-09T06:03:12.759Z,101504.41
2024-05-09T06:05:41.168Z,101497.63
2024-05-09T06:08:09.229Z,101513.31
2024-05-09T06:10:39.587Z,101512.63
2024-05-09T06:13:12.582Z,101513.78
2024-05-09T06:15:41.029Z,101509.72
2024-05-09T06:18:10.735Z,101506.38
2024-05-09T06:20:43.152Z,101507.38
2024-05-09T06:23:12.182Z,101511.03
2024-05-09T06:25:39.936Z,101510.31
2024-05-09T06:28:07.521Z,101502.66
2024-05-09T06:30:40.645Z,101514.03
2024-05-09T06:33:13.361Z,101511.53
2024-05-09T06:35:42.780Z,101510.75
2024-05-09T06:38:10.364Z,101484.81
2024-05-09T06:40:43.040Z,101494.38
2024-05-09T06:43:13.418Z,101495.25
2024-05-09T06:45:41.105Z,101489.19
2024-05-09T06:48:12.131Z,101485.72
2024-05-09T06:50:41.287Z,101477.06
2024-05-09T06:53:09.482Z,101485.72
2024-05-09T06:55:37.972Z,101485.69
2024-05-09T06:58:11.779Z,101485.63
2024-05-09T07:00:41.199Z,101488.22
2024-05-09T07:03:15.365Z,101485.59
2024-05-09T07:05:46.010Z,101476.03
2024-05-09T07:08:14.102Z,101482.91
2024-05-09T07:10:41.707Z,101480.19
2024-05-09T07:13:13.541Z,101468.00
2024-05-09T07:15:42.015Z,101474.88
2024-05-09T07:18:13.739Z,101474.78
2024-05-09T07:20:42.367Z,101464.16
2024-05-09T07:23:11.028Z,101469.22
2024-05-09T07:25:39.970Z,101471.66
2024-05-09T07:28:14.613Z,101470.59
2024-05-09T07:30:42.824Z,101480.84
2024-05-09T07:33:12.460Z,101471.94
2024-05-09T07:35:39.977Z,101476.13
2024-05-09T07:38:07.780Z,101478.53
2024-05-09T07:40:37.022Z,101475.78
2024-05-09T07:43:05.268Z,101473.13
2024-05-09T07:52:23.034Z,101460.56
2024-05-09T07:53:39.469Z,101456.94
2024-05-09T07:56:11.408Z,101458.66
2024-05-09T07:58:39.503Z,101454.22
2024-05-09T08:01:07.097Z,101450.66
2024-05-09T08:03:34.699Z,101440.16
2024-05-09T08:06:02.282Z,101447.09
2024-05-09T08:08:29.521Z,101444.22
2024-05-09T08:10:57.216Z,101442.22
2024-05-09T08:13:24.477Z,101450.53
2024-05-09T08:15:52.866Z,101445.81
2024-05-09T08:18:20.580Z,101434.22
2024-05-09T08:20:49.991Z,101451.91
2024-05-09T08:23:18.106Z,101448.66
2024-05-09T08:25:45.404Z,101448.50
2024-05-09T08:28:13.159Z,101446.78
2024-05-09T08:30:40.650Z,101443.69
2024-05-09T08:33:08.316Z,101441.31
2024-05-09T08:35:36.295Z,101442.13
2024-05-09T08:38:04.821Z,101442.06
2024-05-09T08:40:35.916Z,101441.91
2024-05-09T08:43:10.508Z,101438.66
2024-05-09T08:45:43.373Z,101437.06
2024-05-09T08:48:13.317Z,101431.72
2024-05-09T08:50:41.747Z,101438.28
2024-05-09T08:53:09.541Z,101429.28
2024-05-09T08:55:40.719Z,101442.97
2024-05-09T08:58:16.537Z,101436.75
2024-05-09T09:00:46.027Z,101442.75
2024-05-09T09:03:19.522Z,101436.63
2024-05-09T09:05:58.503Z,101426.63
2024-05-09T09:08:26.614Z,101443.28
2024-05-09T09:10:57.930Z,101441.78
2024-05-09T09:13:25.837Z,101447.28
2024-05-09T09:15:57.899Z,101442.41
2024-05-09T09:18:30.687Z,101429.66
2024-05-09T09:20:58.291Z,101438.53
2024-05-09T09:23:30.471Z,101443.09
2024-05-09T09:26:01.054Z,101441.72
2024-05-09T09:28:28.506Z,101446.31
2024-05-09T09:31:02.348Z,101447.31
2024-05-09T09:33:32.948Z,101447.41
2024-05-09T09:36:05.015Z,101447.41
2024-05-09T09:38:37.165Z,101449.88
2024-05-09T09:41:07.995Z,101450.66
2024-05-09T09:43:36.692Z,101442.06
2024-05-09T09:46:08.682Z,101440.28
2024-05-09T09:48:39.619Z,101438.44
2024-05-09T09:51:08.810Z,101445.06
2024-05-09T09:53:38.672Z,101446.31
2024-05-09T09:56:08.673Z,101447.41
2024-05-09T09:58:38.866Z,101444.81
2024-05-09T10:01:06.219Z,101438.81
2024-05-09T10:03:34.404Z,101439.66
2024-05-09T10:06:02.455Z,101439.78
2024-05-09T10:08:30.455Z,101435.84
2024-05-09T10:10:57.914Z,101424.34
2024-05-09T10:13:34.062Z,101424.63
2024-05-09T10:16:09.057Z,101411.25
2024-05-09T10:18:37.935Z,101407.28
2024-05-09T10:21:16.517Z,101413.06
2024-05-09T10:24:07.420Z,101408.59
2024-05-09T10:26:39.247Z,101402.25
2024-05-09T10:29:17.757Z,101391.41
2024-05-09T10:31:46.911Z,101407.50
2024-05-09T10:34:22.242Z,101402.34
2024-05-09T10:36:54.197Z,101399.09
2024-05-09T10:39:22.121Z,101394.25
2024-05-09T10:41:49.902Z,101396.53
2024-05-09T10:44:17.539Z,101396.44
2024-05-09T10:46:46.574Z,101394.94
2024-05-09T10:49:17.311Z,101404.28
2024-05-09T10:51:45.553Z,101404.22
2024-05-09T10:54:12.983Z,101402.06
2024-05-09T10:56:41.265Z,101395.09
2024-05-09T10:59:08.520Z,101399.00
2024-05-09T11:01:36.650Z,101398.38
2024-05-09T11:04:04.392Z,101397.66
2024-05-09T11:06:31.955Z,101397.06
2024-05-09T11:08:59.484Z,101395.97
2024-05-09T11:11:27.351Z,101388.78
2024-05-09T11:13:54.716Z,101389.31
2024-05-09T11:16:22.407Z,101380.06
2024-05-09T11:18:57.903Z,101382.94
2024-05-09T11:21:25.641Z,101386.72
2024-05-09T11:23:53.369Z,101369.72
2024-05-09T11:26:22.501Z,101372.84
2024-05-09T11:28:51.046Z,101371.84
2024-05-09T11:31:19.096Z,101369.13
2024-05-09T11:33:47.113Z,101365.31
2024-05-09T11:36:15.185Z,101370.47
2024-05-09T11:38:42.800Z,101359.78
2024-05-09T11:41:17.518Z,101364.72
2024-05-09T11:43:44.755Z,101355.94
2024-05-09T11:46:12.261Z,101354.31
2024-05-09T11:48:40.183Z,101347.06
2024-05-09T11:51:07.678Z,101349.31
2024-05-09T11:53:34.971Z,101349.47
2024-05-09T11:56:02.445Z,101341.47
2024-05-09T11:58:34.825Z,101334.53
2024-05-09T12:01:02.414Z,101341.38
2024-05-09T12:03:30.265Z,101337.66
2024-05-09T12:05:58.361Z,101327.44
2024-05-09T12:08:25.869Z,101325.81
2024-05-09T12:10:53.501Z,101325.81
2024-05-09T12:13:21.358Z,101330.88
2024-05-09T12:15:48.847Z,101322.78
2024-05-09T12:18:16.335Z,101327.34
2024-05-09T12:20:43.655Z,101325.72
2024-05-09T12:23:11.050Z,101325.72
2024-05-09T12:25:39.895Z,101326.56
2024-05-09T12:28:08.788Z,101325.72
2024-05-09T12:30:40.328Z,101323.41
2024-05-09T12:33:10.796Z,101315.63
2024-05-09T12:35:38.823Z,101312.94
2024-05-09T12:38:06.073Z,101313.88
2024-05-09T12:40:36.602Z,101306.19
2024-05-09T12:43:09.885Z,101306.44
2024-05-09T12:45:38.843Z,101303.69
2024-05-09T12:48:08.771Z,101299.41
2024-05-09T12:50:36.917Z,101298.94
2024-05-09T12:53:05.322Z,101297.50
2024-05-09T12:55:41.249Z,101290.53
2024-05-09T12:58:17.423Z,101290.34
2024-05-09T13:00:46.389Z,101290.25
2024-05-09T13:03:14.385Z,101291.97
2024-05-09T13:05:42.253Z,101287.56
2024-05-09T13:08:09.875Z,101280.53
2024-05-09T13:10:37.330Z,101277.91
2024-05-09T13:13:04.957Z,101268.69
2024-05-09T13:15:34.965Z,101265.81
2024-05-09T13:18:03.649Z,101272.78
2024-05-09T13:20:34.575Z,101258.66
2024-05-09T13:23:05.908Z,101264.91
2024-05-09T13:25:38.004Z,101260.75
2024-05-09T13:28:06.810Z,101255.78
2024-05-09T13:30:39.657Z,101248.84
2024-05-09T13:33:13.002Z,101257.44
2024-05-09T13:35:47.780Z,101247.00
2024-05-09T13:38:22.100Z,101244.44
2024-05-09T13:40:50.690Z,101236.81
2024-05-09T13:43:18.774Z,101228.22
2024-05-09T13:45:46.493Z,101230.09
2024-05-09T13:48:14.261Z,101228.41
2024-05-09T13:50:42.085Z,101226.94
2024-05-09T13:53:09.450Z,101232.09
2024-05-09T13:55:40.403Z,101222.56
2024-05-09T13:58:08.974Z,101230.59
2024-05-09T14:00:45.251Z,101232.59
2024-05-09T14:03:18.100Z,101228.53
2024-05-09T14:05:47.639Z,101231.41
2024-05-09T14:08:16.033Z,101225.53
2024-05-09T14:10:46.600Z,101222.25
2024-05-09T14:13:14.966Z,101219.75
2024-05-09T14:15:42.359Z,101218.94
2024-05-09T14:18:13.111Z,101216.31
2024-05-09T14:20:42.600Z,101212.78
2024-05-09T14:23:10.373Z,101204.91
2024-05-09T14:25:42.281Z,101205.84
2024-05-09T14:28:11.896Z,101192.00
2024-05-09T14:30:40.057Z,101198.84
2024-05-09T14:33:09.068Z,101195.50
2024-05-09T14:35:38.645Z,101194.09
2024-05-09T14:38:08.595Z,101191.50
2024-05-09T14:40:42.034Z,101182.00
2024-05-09T14:43:15.318Z,101175.31
2024-05-09T14:45:44.111Z,101182.34
2024-05-09T14:48:14.365Z,101179.69
2024-05-09T14:50:42.451Z,101172.78
2024-05-09T14:53:10.942Z,101177.28
2024-05-09T14:55:40.202Z,101173.84
2024-05-09T14:58:09.842Z,101173.06
2024-05-09T15:00:42.428Z,101165.19
2024-05-09T15:03:12.543Z,101165.19
2024-05-09T15:05:40.653Z,101161.84
2024-05-09T15:08:08.832Z,101156.75
2024-05-09T15:10:37.319Z,101168.97
2024-05-09T15:13:07.945Z,101161.22
2024-05-09T15:15:37.517Z,101156.91
2024-05-09T15:18:06.061Z,101153.56
2024-05-09T15:20:36.403Z,101153.75
2024-05-09T15:23:07.072Z,101145.16
2024-05-09T15:25:36.643Z,101146.06
2024-05-09T15:28:08.165Z,101134.84
2024-05-09T15:30:36.389Z,101127.91
2024-05-09T15:33:04.662Z,101124.38
2024-05-09T15:35:34.096Z,101132.13
2024-05-09T15:38:03.600Z,101136.47
2024-05-09T15:40:38.533Z,101134.00
2024-05-09T15:43:09.166Z,101132.34
2024-05-09T15:45:37.981Z,101122.81
2024-05-09T15:48:06.545Z,101126.25
2024-05-09T15:50:38.921Z,101123.59
2024-05-09T15:53:10.417Z,101115.78
2024-05-09T15:55:38.538Z,101117.44
2024-05-09T15:58:07.127Z,101117.44
2024-05-09T16:00:39.285Z,101105.38
2024-05-09T16:03:10.802Z,101113.25
2024-05-09T16:05:38.998Z,101104.56
2024-05-09T16:08:07.590Z,101103.69
2024-05-09T16:10:35.570Z,101106.34
2024-05-09T16:13:04.117Z,101102.03
2024-05-09T16:15:32.144Z,101098.59
2024-05-09T16:18:00.515Z,101094.25
2024-05-09T16:20:35.264Z,101098.59
2024-05-09T16:23:08.703Z,101095.16
2024-05-09T16:25:36.862Z,101095.22
2024-05-09T16:28:08.810Z,101089.25
2024-05-09T16:30:39.405Z,101093.78
2024-05-09T16:33:07.860Z,101087.78
2024-05-09T16:35:35.787Z,101094.88
2024-05-09T16:38:04.311Z,101100.06
2024-05-09T16:40:38.263Z,101099.28
2024-05-09T16:43:11.748Z,101096.69
2024-05-09T16:45:41.158Z,101106.38
2024-05-09T16:48:09.296Z,101103.81
2024-05-09T16:50:37.334Z,101099.63
2024-05-09T16:53:06.156Z,101089.19
2024-05-09T16:55:35.139Z,101098.72
2024-05-09T16:58:03.636Z,101097.88
2024-05-09T17:00:39.517Z,101090.28
2024-05-09T17:03:12.763Z,101096.38
2024-05-09T17:05:41.437Z,101090.38
2024-05-09T17:08:09.255Z,101091.38
2024-05-09T17:10:37.054Z,101086.22
2024-05-09T17:13:06.503Z,101079.34
2024-05-09T17:15:36.206Z,101081.16
2024-05-09T17:18:04.776Z,101085.50
2024-05-09T17:20:35.494Z,101084.72
2024-05-09T17:23:06.243Z,101083.09
2024-05-09T17:25:34.554Z,101084.03
2024-05-09T17:28:07.905Z,101079.75
2024-05-09T17:30:38.780Z,101082.53
2024-05-09T17:33:09.836Z,101078.28
2024-05-09T17:35:38.335Z,101082.75
2024-05-09T17:38:09.159Z,101071.78
2024-05-09T17:40:38.263Z,101085.72
2024-05-09T17:43:09.075Z,101079.00
2024-05-09T17:45:39.463Z,101072.31
2024-05-09T17:48:08.794Z,101076.03
2024-05-09T17:50:37.742Z,101069.28
2024-05-09T17:53:06.529Z,101073.03
2024-05-09T17:55:34.420Z,101079.28
2024-05-09T17:58:02.493Z,101075.13
2024-05-09T18:00:37.626Z,101077.84
2024-05-09T18:03:09.189Z,101067.63
2024-05-09T18:05:37.480Z,101068.72
2024-05-09T18:08:06.698Z,101076.59
2024-05-09T18:10:38.052Z,101078.47
2024-05-09T18:13:08.797Z,101081.19
2024-05-09T18:15:36.740Z,101072.69
2024-05-09T18:18:05.446Z,101081.47
2024-05-09T18:20:41.780Z,101085.06
2024-05-09T18:23:14.678Z,101076.59
2024-05-09T18:25:43.322Z,101074.97
2024-05-09T18:28:11.024Z,101082.81
2024-05-09T18:30:40.009Z,101082.06
2024-05-09T18:33:10.688Z,101083.94
2024-05-09T18:35:38.603Z,101073.69
2024-05-09T18:38:06.068Z,101086.72
2024-05-09T18:40:36.571Z,101079.00
2024-05-09T18:43:07.785Z,101075.59
2024-05-09T18:45:37.779Z,101072.19
2024-05-09T18:48:07.217Z,101071.38
2024-05-09T18:50:38.845Z,101078.34
2024-05-09T18:53:11.049Z,101084.44
2024-05-09T18:55:39.408Z,101089.75
2024-05-09T18:58:07.085Z,101058.75
2024-05-09T19:00:37.987Z,101087.31
2024-05-09T19:03:12.871Z,101080.50
2024-05-09T19:05:43.852Z,101088.34
2024-05-09T19:08:12.519Z,101095.38
2024-05-09T19:10:40.419Z,101090.25
2024-05-09T19:13:12.061Z,101082.56
2024-05-09T19:15:42.528Z,101087.78
2024-05-09T19:18:12.601Z,101095.66
2024-05-09T19:20:40.527Z,101102.66
2024-05-09T19:23:07.914Z,101094.06
2024-05-09T19:25:36.160Z,101098.44
2024-05-09T19:28:05.162Z,101102.81
2024-05-09T19:30:38.916Z,101097.63
2024-05-09T19:33:11.162Z,101095.94
2024-05-09T19:35:39.731Z,101099.44
2024-05-09T19:38:07.418Z,101100.38
2024-05-09T19:40:35.624Z,101090.91
2024-05-09T19:43:05.471Z,101093.50
2024-05-09T19:45:35.203Z,101096.09
2024-05-09T19:48:04.126Z,101094.44
2024-05-09T19:50:39.875Z,101089.28
2024-05-09T19:53:11.827Z,101104.88
2024-05-09T19:55:40.092Z,101099.72
2024-05-09T19:58:10.104Z,101100.59
2024-05-09T20:00:41.370Z,101094.53
2024-05-09T20:03:12.531Z,101104.06
2024-05-09T20:05:40.393Z,101094.59
2024-05-09T20:08:08.016Z,101100.69
2024-05-09T20:10:36.421Z,101104.13
2024-05-09T20:13:06.382Z,101096.38
2024-05-09T20:15:35.728Z,101102.44
2024-05-09T20:18:03.645Z,101101.59
2024-05-09T20:20:37.696Z,101105.06
2024-05-09T20:23:09.536Z,101102.47
2024-05-09T20:25:37.175Z,101092.97
2024-05-09T20:28:06.622Z,101093.84
2024-05-09T20:30:35.323Z,101099.91
2024-05-09T20:33:04.929Z,101094.72
2024-05-09T20:35:33.771Z,101098.22
2024-05-09T20:38:02.667Z,101094.75
2024-05-09T20:40:34.631Z,101098.19
2024-05-09T20:43:06.101Z,101094.78
2024-05-09T20:45:34.254Z,101089.59
2024-05-09T20:48:02.258Z,101091.34
2024-05-09T20:50:37.209Z,101087.88
2024-05-09T20:53:16.678Z,101087.00
2024-05-09T20:55:45.023Z,101089.63
2024-05-09T20:58:13.127Z,101090.47
2024-05-09T21:00:43.820Z,101082.69
2024-05-09T21:03:15.216Z,101084.47
2024-05-09T21:05:44.004Z,101084.47
2024-05-09T21:08:11.461Z,101090.50
2024-05-09T21:10:39.081Z,101086.22
2024-05-09T21:13:07.248Z,101080.16
2024-05-09T21:15:35.779Z,101087.91
2024-05-09T21:18:04.222Z,101085.34
2024-05-09T21:20:33.565Z,101087.06
2024-05-09T21:23:04.202Z,101080.16
2024-05-09T21:25:32.304Z,101089.66
2024-05-09T21:28:00.367Z,101082.75
2024-05-09T21:30:37.515Z,101087.94
2024-05-09T21:33:10.339Z,101089.66
2024-05-09T21:35:39.063Z,101087.06
2024-05-09T21:38:07.535Z,101085.31
2024-05-09T21:40:36.611Z,101088.78
2024-05-09T21:43:05.827Z,101081.88
2024-05-09T21:45:34.115Z,101081.88
2024-05-09T21:48:04.034Z,101081.00
2024-05-09T21:50:38.673Z,101088.78
2024-05-09T21:53:08.851Z,101091.38
2024-05-09T21:55:36.120Z,101087.91
2024-05-09T21:58:03.830Z,101081.03
2024-05-09T22:00:36.724Z,101079.31
2024-05-09T22:03:11.620Z,101081.03
2024-05-09T22:05:42.536Z,101093.13
2024-05-09T22:08:10.115Z,101079.28
2024-05-09T22:10:37.638Z,101083.59
2024-05-09T22:13:06.496Z,101070.66
2024-05-09T22:15:39.878Z,101080.16
2024-05-09T22:18:09.307Z,101088.81
2024-05-09T22:20:39.435Z,101075.84
2024-05-09T22:23:08.719Z,101075.84
2024-05-09T22:25:37.243Z,101074.97
2024-05-09T22:28:05.388Z,101075.00
2024-05-09T22:30:37.199Z,101078.44
2024-05-09T22:33:11.797Z,101076.72
2024-05-09T22:35:40.837Z,101080.16
2024-05-09T22:38:09.016Z,101084.47
2024-05-09T22:40:45.673Z,101085.34
2024-05-09T22:43:24.376Z,101077.56
2024-05-09T22:45:55.849Z,101080.16
2024-05-09T22:48:24.791Z,101073.25
2024-05-09T22:50:53.385Z,101082.75
2024-05-09T22:53:24.244Z,101105.22
2024-05-09T22:55:51.550Z,101103.47
2024-05-09T22:58:19.848Z,101094.84
2024-05-09T23:00:47.368Z,101089.66
2024-05-09T23:03:16.863Z,101087.94
2024-05-09T23:05:44.321Z,101096.59
2024-05-09T23:08:11.519Z,101087.94
2024-05-09T23:10:39.101Z,101101.78
2024-05-09T23:13:08.044Z,101096.59
2024-05-09T23:15:37.778Z,101089.69
2024-05-09T23:18:05.991Z,101081.03
2024-05-09T23:20:38.050Z,101082.78
2024-05-09T23:23:11.605Z,101087.06
2024-05-09T23:25:41.793Z,101087.06
2024-05-09T23:28:10.321Z,101086.19
2024-05-09T23:30:40.260Z,101075.84
2024-05-09T23:33:11.579Z,101062.03
2024-05-09T23:35:39.232Z,101079.28
2024-05-09T23:38:06.407Z,101070.66
2024-05-09T23:40:39.511Z,101067.22
2024-05-09T23:43:10.593Z,101062.00
2024-05-09T23:45:38.569Z,101060.28
2024-05-09T23:48:06.706Z,101055.13
2024-05-09T23:50:37.180Z,101052.50
2024-05-09T23:53:08.196Z,101054.22
2024-05-09T23:55:36.444Z,101052.50
2024-05-09T23:58:04.020Z,101052.47
